Flight Track Log - Related Links

Times and Time Zones

All times are in EDT time to prevent confusion due to time zone crossing. See the N273SK flight status page for this flight to view local times or setup timezone preferences in your user account.

Time Position Orientation Groundspeed Altitude Reporting Facility
EDT Latitude Longitude Course Direction KTS MPH feet Rate Location/Type
Wed 04:10:26 PM 42.9333 -78.7500 246° West 153 176 1,500  Level Buffalo TRACON
Wed 04:10:56 PM 42.9167 -78.7667 216° Southwest 157 181 2,600 2,267 Climbing Buffalo TRACON
Wed 04:11:56 PM 42.9333 -78.8333 289° West 227 261 4,900 2,121 Climbing Buffalo TRACON
Wed 04:13:00 PM 42.8667 -79.0548 270° West  Level FlightAware Approximate
Wed 04:14:00 PM 42.8424 -79.1652 236° Southwest  Level FlightAware Approximate
Wed 04:14:14 PM 42.9100 -79.0014 259° West 223 257 9,600  Level Cleveland Center
Wed 04:15:00 PM 42.8246 -79.2761 246° West  Level FlightAware Approximate
Wed 04:15:14 PM 42.8858 -79.0731 245° Southwest 220 253 11,700  Level Cleveland Center
Wed 04:16:14 PM 42.8578 -79.1586 246° West 227 261 12,700 1,150 Climbing Cleveland Center
Wed 04:17:14 PM 42.8422 -79.2553 258° West 252 290 14,000 1,100 Climbing Cleveland Center
Wed 04:18:14 PM 42.8289 -79.3575 260° West 267 307 14,900 950 Climbing Cleveland Center
Wed 04:19:14 PM 42.8008 -79.4569 249° West 281 323 15,900 1,100 Climbing Cleveland Center
Wed 04:20:14 PM 42.7450 -79.5231 221° Southwest 270 311 17,100 1,550 Climbing Cleveland Center
Wed 04:21:14 PM 42.6933 -79.5803 219° Southwest 252 290 19,000 1,400 Climbing Cleveland Center
Wed 04:22:14 PM 42.6858 -79.6822 264° West 241 277 19,900 500 Climbing Cleveland Center
Wed 04:23:14 PM 42.6889 -79.7950 272° West 284 327 20,000 100 Climbing Cleveland Center
Wed 04:24:14 PM 42.6917 -79.9167 272° West 301 346 20,100  Climbing Cleveland Center
Wed 04:25:14 PM 42.6903 -80.0464 269° West 329 379 20,000 -50 Descending Cleveland Center
Wed 04:26:14 PM 42.6931 -80.1792 272° West 347 399 20,000  Level Cleveland Center
Wed 04:27:14 PM 42.6975 -80.3064 273° West 347 399 20,000  Level Cleveland Center
Wed 04:28:14 PM 42.6997 -80.4392 271° West 347 399 20,000  Level Cleveland Center
Wed 04:29:14 PM 42.7000 -80.5633 270° West 342 394 20,000 50 Level Cleveland Center
Wed 04:30:14 PM 42.6894 -80.6792 263° West 342 394 20,100  Climbing Cleveland Center
Wed 04:31:14 PM 42.6789 -80.8006 263° West 342 394 20,000 -100 Descending Cleveland Center
Wed 04:32:14 PM 42.6661 -80.9192 262° West 329 379 19,900 -50 Descending Cleveland Center
Wed 04:33:14 PM 42.6572 -81.0406 264° West 329 379 19,900 50 Level Cleveland Center
Wed 04:34:14 PM 42.6442 -81.1533 261° West 319 367 20,000 50 Climbing Cleveland Center
Wed 04:35:14 PM 42.6353 -81.2717 264° West 309 356 20,000  Level Cleveland Center
Wed 04:36:14 PM 42.6242 -81.3817 262° West 302 348 20,000 -200 Level Cleveland Center
Wed 04:37:14 PM 42.6150 -81.4889 263° West 291 335 19,600 -800 Descending Cleveland Center
Wed 04:38:14 PM 42.6017 -81.6014 261° West 280 322 18,400 -1,150 Descending Cleveland Center
Wed 04:39:14 PM 42.5922 -81.7028 263° West 274 315 17,300 -950 Descending Cleveland Center
Wed 04:40:14 PM 42.5850 -81.7931 264° West 274 315 16,500 -1,100 Descending Cleveland Center
Wed 04:41:14 PM 42.5736 -81.8914 261° West 274 315 15,100 -1,250 Descending Cleveland Center
Wed 04:42:14 PM 42.5642 -81.9869 262° West 269 310 14,000 -1,150 Descending Cleveland Center
Wed 04:43:14 PM 42.5567 -82.0769 264° West 263 303 12,800 -1,000 Descending Cleveland Center
Wed 04:44:14 PM 42.5472 -82.1669 262° West 250 288 12,000 -578 Descending Cleveland Center
Wed 04:44:37 PM 42.5444 -82.2150 266° West 243 280 12,000 100 Level Cleveland Center
Wed 04:45:14 PM 42.5372 -82.2767 261° West 261 300 12,100 -62 Climbing Cleveland Center
Wed 04:46:14 PM 42.5258 -82.3581 259° West 256 295 11,900 -100 Descending Cleveland Center
Wed 04:47:14 PM 42.5158 -82.4508 262° West 256 295 11,900 51 Level Cleveland Center
Wed 04:48:11 PM 42.5081 -82.5492 264° West 248 285 12,000 50 Climbing Cleveland Center
Wed 04:49:14 PM 42.4794 -82.6269 244° Southwest 256 295 12,000  Level Cleveland Center
Wed 04:50:14 PM 42.4467 -82.7161 244° Southwest 261 300 12,000  Level Cleveland Center
Wed 04:51:14 PM 42.4136 -82.8106 245° Southwest 259 298 12,000  Level Cleveland Center
Wed 04:52:14 PM 42.3850 -82.8883 244° Southwest 261 300 12,000  Level Cleveland Center
Wed 04:53:14 PM 42.3542 -82.9742 244° Southwest 256 295 12,000  Level Cleveland Center
Wed 04:54:14 PM 42.3297 -83.0436 245° Southwest 236 272 12,000  Level Cleveland Center
Wed 04:55:18 PM 42.3144 -83.1281 256° West 209 241 12,000  Level FAA TRACON SMA TRACON (SMA)
Wed 04:55:38 PM 42.3042 -83.1550 243° Southwest 222 255 12,000  Level FAA TRACON SMA TRACON (SMA)
Wed 04:55:58 PM 42.2900 -83.1658 209° Southwest 218 251 12,000  Level FAA TRACON SMA TRACON (SMA)
Wed 04:56:18 PM 42.2714 -83.1794 208° Southwest 220 253 12,000 -439 Level FAA TRACON SMA TRACON (SMA)
Wed 04:56:39 PM 42.2506 -83.1939 207° Southwest 217 250 11,700 -1,200 Descending FAA TRACON SMA TRACON (SMA)
Wed 04:56:58 PM 42.2369 -83.2044 210° Southwest 218 251 11,200 -1,692 Descending FAA TRACON SMA TRACON (SMA)
Wed 04:57:18 PM 42.2178 -83.2178 207° Southwest 216 249 10,600 -1,500 Descending FAA TRACON SMA TRACON (SMA)
Wed 04:57:38 PM 42.2017 -83.2311 212° Southwest 217 250 10,200 -1,650 Descending FAA TRACON SMA TRACON (SMA)
Wed 04:57:58 PM 42.1811 -83.2464 209° Southwest 218 251 9,500 -1,950 Descending FAA TRACON SMA TRACON (SMA)
Wed 04:58:18 PM 42.1647 -83.2594 211° Southwest 221 254 8,900 -1,800 Descending FAA TRACON SMA TRACON (SMA)
Wed 04:58:38 PM 42.1475 -83.2722 209° Southwest 226 260 8,300 -2,000 Descending FAA TRACON SMA TRACON (SMA)
Wed 04:58:57 PM 42.1256 -83.2881 208° Southwest 235 270 7,600 -1,846 Descending FAA TRACON SMA TRACON (SMA)
Wed 04:59:17 PM 42.1067 -83.3019 209° Southwest 245 282 7,100 -900 Descending FAA TRACON SMA TRACON (SMA)
Wed 04:59:37 PM 42.0908 -83.3144 210° Southwest 250 288 7,000 -300 Descending FAA TRACON SMA TRACON (SMA)
Wed 04:59:57 PM 42.0703 -83.3286 207° Southwest 234 269 6,900 -750 Descending FAA TRACON SMA TRACON (SMA)
Wed 05:00:17 PM 42.0494 -83.3431 207° Southwest 218 251 6,500 -1,024 Descending FAA TRACON SMA TRACON (SMA)
Wed 05:00:38 PM 42.0344 -83.3533 207° Southwest 217 250 6,200 -857 Descending FAA TRACON SMA TRACON (SMA)
Wed 05:01:06 PM 42.0108 -83.3614 194° South 213 245 5,800 -1,000 Descending FAA TRACON SMA TRACON (SMA)
Wed 05:01:26 PM 41.9839 -83.3617 180° South 210 242 5,400 -1,176 Descending FAA TRACON SMA TRACON (SMA)
Wed 05:01:57 PM 41.9583 -83.3653 186° South 195 224 4,800 -1,019 Descending FAA TRACON SMA TRACON (SMA)
Wed 05:02:19 PM 41.9531 -83.3861 251° West 157 181 4,500 -732 Descending FAA TRACON SMA TRACON (SMA)
Wed 05:02:38 PM 41.9608 -83.3967 315° West 151 174 4,300 -769 Descending FAA TRACON SMA TRACON (SMA)
Wed 05:02:58 PM 41.9758 -83.4086 329° Northwest 153 176 4,000 -450 Descending FAA TRACON SMA TRACON (SMA)
Wed 05:03:18 PM 41.9881 -83.4181 330° Northwest 161 185 4,000  Level FAA TRACON SMA TRACON (SMA)
Wed 05:03:38 PM 41.9994 -83.4275 328° Northwest 169 194 4,000  Level FAA TRACON SMA TRACON (SMA)

Login

Don't have an account? Register now (free) for customized features, flight alerts, and more!